NWS Home NWS Lubbock West Texas Mesonet Three hour changes as of 1231 PM, Sat Mar 25, 2017

Latest   N   C   S   Daily Sum   3hrΔ   24hrΔ   Soil Data 
Site Map   24hr Precip   72hr Precip   Google Plot


Station Time of Last Temp Now Temp 3h ago Delta-T Dewpoint Now Dewpoint 3hr ago Delta-Td 3hr Press Change (mB)
Reese Center  12:25 PM 61.5 47.2 14.3 30 31.9 -1.8 -0.8
Abernathy  12:25 PM 61.7 46.2 15.6 31.9 33.6 -1.7 -0.6
Plainview  12:25 PM 61.7 45.8 15.9 31.7 34.3 -2.5 -0.9
Tahoka  12:25 PM 63.4 50.7 12.7 28.3 32.1 -3.8 -0.6
Slaton  12:25 PM 63.4 49.4 14 28.7 31.6 -2.9 -0.4
Levelland  12:25 PM 61.6 48.1 13.5 29.8 31.4 -1.6 -0.8
Roaring Springs  12:25 PM 62.9 46.9 16 31.5 37.3 -5.8 -0.9
Floydada  12:25 PM 63.9 46.7 17.2 23.7 34.1 -10.4 -0.9
Ralls  12:25 PM 64.4 47.5 16.9 27.5 33.8 -6.2 -0.8
Brownfield  12:20 PM 61 47.8 13.2 31.7 31.7 0.1 -0.7
Muleshoe  12:25 PM 59.6 43 16.6 30.4 34.5 -4.1 -1.2
Morton  12:25 PM 61.9 45.1 16.7 28.4 33 -4.6 -1.3
O'Donnell  12:25 PM 64 50.5 13.6 26.3 31.3 -5 -0.7
Seagraves  12:25 PM 61.1 47.3 13.8 31.4 34.5 -3.1 -1.2
Amherst  12:25 PM 59.6 44.7 15 30.7 33.4 -2.6 -0.8
Plains  12:25 PM 62.1 46 16.1 30.2 32.7 -2.5 -1.2
Lamesa  12:25 PM 64.6 50 14.6 32.5 33.6 -1.2 -0.6
Hart  12:25 PM 59.2 44.7 14.5 31.7 33.6 -1.8 -1
Friona  12:25 PM 59.7 41.4 18.3 29.8 34 -4.2 -1.3
Dimmitt  12:25 PM 58.5 43.4 15.1 30.6 32.8 -2.2 -1
Tulia  12:25 PM 61.2 45.2 15.9 33.4 36.2 -2.8 -0.9
Silverton  12:25 PM 63.7 48.9 14.8 25.5 32.8 -7.3 -0.9
Post  12:25 PM 66.3 53.2 13.1 28.7 33.2 -4.5 -0.8
Seminole  12:25 PM 61.7 46.9 14.8 31.7 33 -1.3 -0.9
Gail  12:25 PM 66 53.3 12.7 28.6 32.8 -4.1 -0.7
White River Lake  12:25 PM 66.9 50.1 16.9 27.5 34.1 -6.7 -0.7
Graham  12:15 PM 64.9 50 14.9 28.3 31.2 -2.9 -0.2
Sundown  12:25 PM 62.3 48.4 13.9 30.3 33 -2.7 -1.2
Anton  12:25 PM 61.6 46.1 15.5 32.5 34 -1.4 -0.8
Fluvanna  12:25 PM 63.5 50.1 13.4 31.1 34 -3 -0.6
Spur  12:25 PM 66.1 50.1 16 28.1 35.2 -7.1 -1.2
Northwest Lubbock  12:25 PM 62.7 48.6 14.1 30.2 32.1 -1.9 -0.9
Guthrie  12:25 PM 64.2 50.9 13.2 34.2 35.9 -1.7 -1
Clarendon  12:25 PM 62.2 46.5 15.8 27 32.3 -5.3 -0.5
Paducah  12:25 PM 64.5 49.5 15 35.1 37.6 -2.6 -0.8
Snyder  12:25 PM 63.6 51.7 11.8 36.3 36.8 -0.6 -0.7
Memphis  12:25 PM 63.2 49.4 13.8 33.5 35.6 -2.1 -0.6
Jayton  12:25 PM 63.7 50 13.6 37 36.3 0.7 -1.2
Pampa  12:25 PM 58.4 43.2 15.2 29.2 33.4 -4.2 -0.8
Aspermont  12:25 PM 64.3 51.3 12.9 37.8 36.6 1.2 -1.3
Hereford  12:25 PM 59.3 42.8 16.5 31.8 32.4 -0.6 -1.4
Goodlett  12:25 PM 62.2 50.1 12.1 37.5 37.6 -0.1 -0.6
McLean  12:25 PM 59.9 46.3 13.6 30.4 32.8 -2.4 -0.9
Denver City  12:25 PM 61.2 44.8 16.4 28.6 31.7 -3.1 -1.2
Lake Alan Henry  12:25 PM 66.4 51.9 14.5 30.9 33.5 -2.6 -1.2
Wolfforth  12:25 PM 62.7 49.1 13.6 30.7 31.4 -0.7 -0.7
Andrews  12:25 PM 62.3 50.2 12.2 32.1 32.2 -0.1 -1
Turkey  12:25 PM 64.5 49.6 14.9 29.4 36 -6.6 -1.1
Childress  12:25 PM 63.2 48.9 14.3 35.5 37.6 -2.1 -0.8
Tatum  12:25 PM 63.4 47.7 15.7 28.4 30.3 -1.9 -1.1
Northfield  12:25 PM 64.6 50.1 14.5 33.8 37.5 -3.7 -1.1
Dora  12:25 PM 61.7 47.7 14 28.5 32.5 -4 -1.3
Northwest San Angelo  12:25 PM 66.9 51.7 15.2 37.2 34.7 2.5 -1.3
Saint Lawrence  12:25 PM 65.2 50.5 14.8 27.5 33 -5.5 -1.4
Haskell  12:25 PM 62.7 50.4 12.3 37.7 37 0.7 -1
Wall  12:25 PM 64.6 54.4 10.2 38.1 36.8 1.3 -1.2
Seymour  12:25 PM 62 52.6 9.4 40.2 39.7 0.5 -0.3
Knox City  12:25 PM 64.3 52 12.2 36.7 36.8 -0.1 -1.2
Guadalupe Mtns Park  12:25 PM 59.7 46.9 12.7 25.6 27 -1.3 -1.1
Caprock Canyons   12:25 PM 63.2 51.2 12 27.5 31.4 -3.9 -1.2
Odell  12:25 PM 61.1 53.8 7.3 42.3 41.6 0.7 -0.4
Coyanosa  12:25 PM 65.3 55.3 10 28.8 31.8 -3 -1.5
Big Lake  12:25 PM 65.5 51.7 13.8 33.3 34.4 -1 -1.2
Junction  12:25 PM 67.8 55.2 12.6 40.2 38.5 1.7 -1.2
Hobbs  12:25 PM 60.1 49.3 10.8 28.1 31 -2.9 -1.2
Canadian  12:25 PM 59.3 46.3 13 33.5 35.4 -1.9 -1.1
Palo Duro Canyon State Park Rim  12:25 PM 61.5 48.6 12.8 26.5 31.7 -5.2 -0.6
Bootleg  12:25 PM 58.7 42.3 16.4 29.9 36.7 -6.7 -1.2
Sterling City  12:25 PM 66.2 51.6 14.6 32.9 34.4 -1.5 -1.3
Mertzon  12:25 PM 68.4 52.8 15.6 35.3 34.7 0.6 -0.9
Persimmon Gap  12:25 PM 69.9 62 7.8 27.5 27.8 -0.3 -1
Weinert  12:25 PM 61.3 50.9 10.4 39.3 37.8 1.5 -1.1
Claude 12 Southwest  12:25 PM 60.2 45.7 14.5 25.7 31.4 -5.7 -0.7
Amarillo 7 South Southeast  12:25 PM 60.4 47.1 13.3 30.1 32.9 -2.8 -0.6
Umbarger  12:25 PM 58.4 43.9 14.5 32.2 33.4 -1.2 -0.9
Lomax  12:25 PM 65.2 50.8 14.3 30.7 33.4 -2.8 -1.2
Amarillo 9 North Northeast  12:25 PM 58.4 44 14.4 32.3 33.4 -1.1 -1.1
Aiken 3 West Southwest  12:25 PM 62.7 46.3 16.4 30.2 33.7 -3.4 -0.9
Sweetwater  12:25 PM 61.7 48.7 13 39.4 37.8 1.6 -1.1
Dozier  12:25 PM 62.3 48.6 13.6 34.8 36.1 -1.3 -1.1
Amarillo 15 North Northwest  12:25 PM 59.5 43.2 16.3 33.8 33.8 0 -1.2
Menard  12:25 PM 67.6 55.1 12.5 40.5 38.7 1.8 -0.9
Tarzan  12:25 PM 64.2 50 14.2 31.8 32.8 -1 -0.7
Goodnight  12:25 PM 62.4 47.6 14.8 31.1 34 -2.9 -0.6
Boys Ranch   12:25 PM 58.8 42.5 16.3 36.5 34.6 1.9 -1.6
Fort McKavett  12:25 PM 66.6 53.9 12.7 38.5 38.3 0.2 -0.6
Fort Chadbourne  12:25 PM 62.3 51.6 10.7 39.6 38.6 1 -0.9
Palo Duro Canyon State Park Floor  12:25 PM 65 48 17 27.9 31.6 -3.7 -1.2
Fort Lancaster  12:25 PM 66.9 57.7 9.2 36.4 34.9 1.5 -1
Dell City 1N  12:25 PM 63.1 46.5 16.6 31.1 31.5 -0.4 -1.2
Clyde  12:25 PM 61 51 10 40.6 38.2 2.4 -0.8
Snyder SSW  12:25 PM 64.1 52.5 11.6 36.7 35.9 0.8 -0.8
Panhandle  12:25 PM 60.3 43.7 16.6 25.9 33.5 -7.7 -1
Vigo Park  12:25 PM 62.1 43.7 18.4 29.6 34.4 -4.9 -1
Welch  12:25 PM 62.9 50.2 12.8 31 32.2 -1.3 -0.8
Throckmorton  12:25 PM 60.6 51.6 9.1 43.9 41.4 2.5 -0.6
Sierra Blanca  12:25 PM 67.1 49.8 17.3 22.8 26.5 -3.7 -0.9
Fort Lewis CO  12:25 PM 51 40.6 10.4 27.4 16.5 10.9 -0.9
New Home  12:25 PM 62.5 49.9 12.7 32.6 32.9 -0.3 -0.6
McCamey  12:25 PM 66.3 54.1 12.3 31.4 33.6 -2.2 -1.1
Stamford  12:25 PM 62.1 51.7 10.4 39.5 37.6 1.9 -0.9
Crowell  12:25 PM 62.6 51.8 10.8 39.2 38.3 0.9 -0.6
Olton  12:25 PM 60.1 44.6 15.5 31.1 32.6 -1.5 -0.7

West Texas Mesonet Home   Site Map/Menu  NWS Lubbock Soil Data  Daily Summary Page  24hr Precip  72hr Precip  Google Plot